createdAt,value
2018-09-16T00:00:52.804Z,20.60
2018-09-16T00:01:56.999Z,19.45
2018-09-16T00:03:01.542Z,19.80
2018-09-16T00:04:05.751Z,19.42
2018-09-16T00:05:10.092Z,19.73
2018-09-16T00:06:14.330Z,20.50
2018-09-16T00:07:18.418Z,19.80
2018-09-16T00:08:22.589Z,20.27
2018-09-16T00:09:26.797Z,18.55
2018-09-16T00:10:31.288Z,19.77
2018-09-16T00:11:35.499Z,18.00
2018-09-16T00:12:39.818Z,21.48
2018-09-16T00:13:44.092Z,20.37
2018-09-16T00:14:48.555Z,19.95
2018-09-16T00:15:52.841Z,19.67
2018-09-16T00:16:56.952Z,19.90
2018-09-16T00:18:01.305Z,20.20
2018-09-16T00:19:05.596Z,17.82
2018-09-16T00:20:10.013Z,18.27
2018-09-16T00:21:14.497Z,18.67
2018-09-16T00:22:18.809Z,19.02
2018-09-16T00:23:23.102Z,19.17
2018-09-16T00:24:27.532Z,19.50
2018-09-16T00:25:31.715Z,19.70
2018-09-16T00:26:35.918Z,18.17
2018-09-16T00:27:40.430Z,19.27
2018-09-16T00:28:44.686Z,19.57
2018-09-16T00:29:49.188Z,19.55
2018-09-16T00:30:53.593Z,19.42
2018-09-16T00:32:03.664Z,20.10
2018-09-16T00:33:07.846Z,18.35
2018-09-16T00:34:18.364Z,18.42
2018-09-16T00:35:22.766Z,19.62
2018-09-16T00:36:27.012Z,18.82
2018-09-16T00:37:31.279Z,19.12
2018-09-16T00:38:35.412Z,20.00
2018-09-16T00:39:39.727Z,19.45
2018-09-16T00:40:44.142Z,19.90
2018-09-16T00:41:48.330Z,18.70
2018-09-16T00:42:52.700Z,18.27
2018-09-16T00:43:57.058Z,19.62
2018-09-16T00:45:01.283Z,19.60
2018-09-16T00:46:05.614Z,20.55
2018-09-16T00:47:09.921Z,19.40
2018-09-16T00:48:14.337Z,18.87
2018-09-16T00:49:18.983Z,19.00
2018-09-16T00:50:23.562Z,19.80
2018-09-16T00:51:27.792Z,19.20
2018-09-16T00:52:32.188Z,19.90
2018-09-16T00:53:36.501Z,22.52
2018-09-16T00:54:40.999Z,20.92
2018-09-16T00:55:45.613Z,20.97
2018-09-16T00:56:50.011Z,21.97
2018-09-16T00:57:54.382Z,22.60
2018-09-16T00:58:58.773Z,19.05
2018-09-16T01:00:03.317Z,20.82
2018-09-16T01:01:07.891Z,20.77
2018-09-16T01:02:11.983Z,21.15
2018-09-16T01:03:16.322Z,20.25
2018-09-16T01:04:20.591Z,20.00
2018-09-16T01:05:25.056Z,21.45
2018-09-16T01:06:34.670Z,20.62
2018-09-16T01:07:39.094Z,22.37
2018-09-16T01:08:43.277Z,21.17
2018-09-16T01:09:52.423Z,21.12
2018-09-16T01:10:58.158Z,21.17
2018-09-16T01:12:02.401Z,21.68
2018-09-16T01:13:07.056Z,20.77
2018-09-16T01:14:11.596Z,22.02
2018-09-16T01:15:15.889Z,23.20
2018-09-16T01:16:20.175Z,23.07
2018-09-16T01:17:24.510Z,21.85
2018-09-16T01:18:28.650Z,21.17
2018-09-16T01:19:32.846Z,22.62
2018-09-16T01:20:37.282Z,21.80
2018-09-16T01:21:41.403Z,22.22
2018-09-16T01:22:45.659Z,22.45
2018-09-16T01:23:49.884Z,23.10
2018-09-16T01:24:53.958Z,23.00
2018-09-16T01:25:58.341Z,22.80
2018-09-16T01:27:02.609Z,22.90
2018-09-16T01:28:06.985Z,22.30
2018-09-16T01:29:11.486Z,24.25
2018-09-16T01:30:15.682Z,22.13
2018-09-16T01:31:20.368Z,24.57
2018-09-16T01:32:24.747Z,23.27
2018-09-16T01:33:29.013Z,23.73
2018-09-16T01:34:33.276Z,23.92
2018-09-16T01:35:37.898Z,24.77
2018-09-16T01:36:42.256Z,24.75
2018-09-16T01:37:51.804Z,25.77
2018-09-16T01:38:56.917Z,23.38
2018-09-16T01:40:01.402Z,25.12
2018-09-16T01:41:05.980Z,24.45
2018-09-16T01:42:10.101Z,25.35
2018-09-16T01:43:14.519Z,24.25
2018-09-16T01:44:18.694Z,23.10
2018-09-16T01:45:22.869Z,25.97
2018-09-16T01:46:27.269Z,25.70
2018-09-16T01:47:31.415Z,25.70
2018-09-16T01:48:35.605Z,26.77
2018-09-16T01:49:39.964Z,24.15
2018-09-16T01:50:44.148Z,25.20
2018-09-16T01:51:48.334Z,24.57
2018-09-16T01:52:52.605Z,26.87
2018-09-16T01:53:56.876Z,25.40
2018-09-16T01:55:01.328Z,24.25
2018-09-16T01:56:05.790Z,24.35
2018-09-16T01:57:09.858Z,25.40
2018-09-16T01:58:14.037Z,25.05
2018-09-16T01:59:18.363Z,26.55
2018-09-16T02:00:25.433Z,24.05
2018-09-16T02:01:29.788Z,24.72
2018-09-16T02:02:34.196Z,23.18
2018-09-16T02:03:38.458Z,24.20
2018-09-16T02:04:43.233Z,24.67
2018-09-16T02:05:53.376Z,25.00
2018-09-16T02:06:57.904Z,26.10
2018-09-16T02:08:02.185Z,25.10
2018-09-16T02:09:07.503Z,25.00
2018-09-16T02:10:11.731Z,25.10
2018-09-16T02:11:15.938Z,24.67
2018-09-16T02:12:20.348Z,24.37
2018-09-16T02:13:25.215Z,24.20
2018-09-16T02:14:29.789Z,23.75
2018-09-16T02:15:34.157Z,25.57
2018-09-16T02:16:38.531Z,26.20
2018-09-16T02:17:42.772Z,25.37
2018-09-16T02:18:47.348Z,25.90
2018-09-16T02:19:51.617Z,25.40
2018-09-16T02:20:55.923Z,24.92
2018-09-16T02:22:00.129Z,26.45
2018-09-16T02:23:04.349Z,26.70
2018-09-16T02:24:08.532Z,24.47
2018-09-16T02:25:13.106Z,25.37
2018-09-16T02:26:17.327Z,26.93
2018-09-16T02:27:21.589Z,25.00
2018-09-16T02:28:25.803Z,26.05
2018-09-16T02:29:30.128Z,26.50
2018-09-16T02:30:34.444Z,25.12
2018-09-16T02:31:38.565Z,25.45
2018-09-16T02:32:42.951Z,24.67
2018-09-16T02:33:47.315Z,25.70
2018-09-16T02:34:51.540Z,24.98
2018-09-16T02:35:56.013Z,26.73
2018-09-16T02:37:00.194Z,26.73
2018-09-16T02:38:04.717Z,26.40
2018-09-16T02:39:09.208Z,24.82
2018-09-16T02:40:13.435Z,26.48
2018-09-16T02:41:17.606Z,24.00
2018-09-16T02:42:21.712Z,25.55
2018-09-16T02:43:26.409Z,25.17
2018-09-16T02:44:30.517Z,25.15
2018-09-16T02:45:35.067Z,26.60
2018-09-16T02:46:39.550Z,26.30
2018-09-16T02:47:44.095Z,26.17
2018-09-16T02:48:48.552Z,23.85
2018-09-16T02:49:53.072Z,26.60
2018-09-16T02:50:57.203Z,26.27
2018-09-16T02:52:01.365Z,25.65
2018-09-16T02:53:05.553Z,24.95
2018-09-16T02:54:09.923Z,25.92
2018-09-16T02:55:14.258Z,25.43
2018-09-16T02:56:18.711Z,25.97
2018-09-16T02:57:23.014Z,25.17
2018-09-16T02:58:27.175Z,25.52
2018-09-16T02:59:31.753Z,25.30
2018-09-16T03:00:36.191Z,26.12
2018-09-16T03:01:40.579Z,24.95
2018-09-16T03:02:44.699Z,25.43
2018-09-16T03:03:49.130Z,25.55
2018-09-16T03:04:53.697Z,24.18
2018-09-16T03:05:58.495Z,25.30
2018-09-16T03:07:02.912Z,23.10
2018-09-16T03:08:07.093Z,25.70
2018-09-16T03:09:11.227Z,23.70
2018-09-16T03:10:15.642Z,24.43
2018-09-16T03:11:19.972Z,24.77
2018-09-16T03:12:24.166Z,26.00
2018-09-16T03:13:28.461Z,24.80
2018-09-16T03:14:32.646Z,23.80
2018-09-16T03:15:36.974Z,26.60
2018-09-16T03:16:41.182Z,23.20
2018-09-16T03:17:45.482Z,24.70
2018-09-16T03:18:49.826Z,24.43
2018-09-16T03:19:54.458Z,24.90
2018-09-16T03:20:58.959Z,23.35
2018-09-16T03:22:03.270Z,24.00
2018-09-16T03:23:07.803Z,23.38
2018-09-16T03:24:12.119Z,23.95
2018-09-16T03:25:16.721Z,23.90
2018-09-16T03:26:21.208Z,24.15
2018-09-16T03:27:25.374Z,24.07
2018-09-16T03:28:29.627Z,23.83
2018-09-16T03:29:33.805Z,24.20
2018-09-16T03:30:38.225Z,23.98
2018-09-16T03:31:42.851Z,23.18
2018-09-16T03:32:47.333Z,24.80
2018-09-16T03:33:51.592Z,24.30
2018-09-16T03:34:55.848Z,24.32
2018-09-16T03:36:00.228Z,25.25
2018-09-16T03:37:04.547Z,22.95
2018-09-16T03:38:08.629Z,23.02
2018-09-16T03:39:12.990Z,25.90
2018-09-16T03:40:17.300Z,24.20
2018-09-16T03:41:21.474Z,23.80
2018-09-16T03:42:25.605Z,24.40
2018-09-16T03:43:29.843Z,24.20
2018-09-16T03:44:34.115Z,24.87
2018-09-16T03:45:38.534Z,24.12
2018-09-16T03:46:43.061Z,25.92
2018-09-16T03:47:47.186Z,23.32
2018-09-16T03:48:51.926Z,24.05
2018-09-16T03:49:56.394Z,24.32
2018-09-16T03:51:00.733Z,25.30
2018-09-16T03:52:05.039Z,24.98
2018-09-16T03:53:09.648Z,24.45
2018-09-16T03:54:14.056Z,25.23
2018-09-16T03:55:18.399Z,26.33
2018-09-16T03:56:23.282Z,27.87
2018-09-16T03:57:27.666Z,26.12
2018-09-16T03:58:31.895Z,27.30
2018-09-16T03:59:36.019Z,26.17
2018-09-16T04:00:40.179Z,26.70
2018-09-16T04:01:44.369Z,26.35
2018-09-16T04:02:48.754Z,27.15
2018-09-16T04:03:53.081Z,25.90
2018-09-16T04:04:57.549Z,25.60
2018-09-16T04:06:01.877Z,25.82
2018-09-16T04:07:06.345Z,25.02
2018-09-16T04:08:10.546Z,27.65
2018-09-16T04:09:14.693Z,26.02
2018-09-16T04:10:18.949Z,27.27
2018-09-16T04:11:23.297Z,27.15
2018-09-16T04:12:27.813Z,27.15
2018-09-16T04:13:32.381Z,26.15
2018-09-16T04:14:36.514Z,26.35
2018-09-16T04:15:40.668Z,28.92
2018-09-16T04:16:45.142Z,28.27
2018-09-16T04:17:49.502Z,29.95
2018-09-16T04:18:53.707Z,27.70
2018-09-16T04:19:57.972Z,29.42
2018-09-16T04:21:02.720Z,26.75
2018-09-16T04:22:07.177Z,28.87
2018-09-16T04:23:11.619Z,28.15
2018-09-16T04:24:16.055Z,28.05
2018-09-16T04:25:20.584Z,28.55
2018-09-16T04:26:24.880Z,27.90
2018-09-16T04:27:29.316Z,27.22
2018-09-16T04:28:33.689Z,26.48
2018-09-16T04:29:37.837Z,28.15
2018-09-16T04:30:42.141Z,29.92
2018-09-16T04:31:46.683Z,27.95
2018-09-16T04:32:51.134Z,29.50
2018-09-16T04:33:55.401Z,30.20
2018-09-16T04:34:59.841Z,28.40
2018-09-16T04:36:04.240Z,28.23
2018-09-16T04:37:08.794Z,29.65
2018-09-16T04:38:13.164Z,29.15
2018-09-16T04:39:17.434Z,29.27
2018-09-16T04:40:22.019Z,28.90
2018-09-16T04:41:26.273Z,27.25
2018-09-16T04:42:30.995Z,27.55
2018-09-16T04:43:35.412Z,28.38
2018-09-16T04:44:39.750Z,27.82
2018-09-16T04:45:44.335Z,28.10
2018-09-16T04:46:48.711Z,28.75
2018-09-16T04:47:53.191Z,27.40
2018-09-16T04:48:57.740Z,27.20
2018-09-16T04:50:02.388Z,28.67
2018-09-16T04:51:06.620Z,26.73
2018-09-16T04:52:11.060Z,26.62
2018-09-16T04:53:15.383Z,27.02
2018-09-16T04:54:19.854Z,26.15
2018-09-16T04:55:24.124Z,30.08
2018-09-16T04:56:28.368Z,26.90
2018-09-16T04:57:32.605Z,26.82
2018-09-16T04:58:36.883Z,27.70
2018-09-16T04:59:41.123Z,27.77
2018-09-16T05:00:45.495Z,26.30
2018-09-16T05:01:50.034Z,26.93
2018-09-16T05:02:54.296Z,25.97
2018-09-16T05:03:58.540Z,27.75
2018-09-16T05:05:03.297Z,25.40
2018-09-16T05:06:07.834Z,28.75
2018-09-16T05:07:12.296Z,25.57
2018-09-16T05:08:16.472Z,26.30
2018-09-16T05:09:21.135Z,26.07
2018-09-16T05:10:25.561Z,26.57
2018-09-16T05:11:29.922Z,25.37
2018-09-16T05:12:34.086Z,26.48
2018-09-16T05:13:38.425Z,25.97
2018-09-16T05:14:42.589Z,24.95
2018-09-16T05:15:46.901Z,25.48
2018-09-16T05:16:51.947Z,27.48
2018-09-16T05:17:57.469Z,25.62
2018-09-16T05:19:01.742Z,27.15
2018-09-16T05:20:06.180Z,27.27
2018-09-16T05:21:10.637Z,24.87
2018-09-16T05:22:14.957Z,24.47
2018-09-16T05:23:19.589Z,24.90
2018-09-16T05:24:24.366Z,25.40
2018-09-16T05:25:28.733Z,25.60
2018-09-16T05:26:33.041Z,24.30
2018-09-16T05:27:37.827Z,26.02
2018-09-16T05:28:42.509Z,25.75
2018-09-16T05:29:46.958Z,27.13
2018-09-16T05:30:51.318Z,25.75
2018-09-16T05:31:55.836Z,25.75
2018-09-16T05:33:00.774Z,27.80
2018-09-16T05:34:05.119Z,25.50
2018-09-16T05:35:09.675Z,24.05
2018-09-16T05:36:14.288Z,23.98
2018-09-16T05:37:18.558Z,25.72
2018-09-16T05:38:23.006Z,25.48
2018-09-16T05:39:27.222Z,26.15
2018-09-16T05:40:31.764Z,24.40
2018-09-16T05:41:36.120Z,24.32
2018-09-16T05:42:40.563Z,24.72
2018-09-16T05:43:45.230Z,25.02
2018-09-16T05:44:49.450Z,24.37
2018-09-16T05:45:53.773Z,27.50
2018-09-16T05:46:58.329Z,26.10
2018-09-16T05:48:02.550Z,24.57
2018-09-16T05:49:06.847Z,24.90
2018-09-16T05:50:11.330Z,27.13
2018-09-16T05:51:15.969Z,26.05
2018-09-16T05:52:20.539Z,26.85
2018-09-16T05:53:24.850Z,26.23
2018-09-16T05:54:28.911Z,24.20
2018-09-16T05:55:33.329Z,28.83
2018-09-16T05:56:37.940Z,28.50
2018-09-16T05:57:42.515Z,26.05
2018-09-16T05:58:47.425Z,27.37
2018-09-16T05:59:52.201Z,25.65
2018-09-16T06:00:56.596Z,23.10
2018-09-16T06:02:01.032Z,23.67
2018-09-16T06:03:05.882Z,21.73
2018-09-16T06:04:10.535Z,22.80
2018-09-16T06:05:15.073Z,21.45
2018-09-16T06:06:19.799Z,20.75
2018-09-16T06:07:24.184Z,19.80
2018-09-16T06:08:28.559Z,20.77
2018-09-16T06:09:32.873Z,21.52
2018-09-16T06:10:37.108Z,19.48
2018-09-16T06:11:41.685Z,20.05
2018-09-16T06:12:46.395Z,20.17
2018-09-16T06:13:50.824Z,19.98
2018-09-16T06:14:55.124Z,19.27
2018-09-16T06:15:59.448Z,21.87
2018-09-16T06:17:04.013Z,18.85
2018-09-16T06:18:08.795Z,19.23
2018-09-16T06:19:13.627Z,18.42
2018-09-16T06:20:18.073Z,18.07
2018-09-16T06:21:22.262Z,18.05
2018-09-16T06:22:26.793Z,18.25
2018-09-16T06:23:31.217Z,20.17
2018-09-16T06:24:35.410Z,17.92
2018-09-16T06:25:39.789Z,17.57
2018-09-16T06:26:44.213Z,19.98
2018-09-16T06:27:48.785Z,19.42
2018-09-16T06:28:53.259Z,20.23
2018-09-16T06:29:57.884Z,17.95
2018-09-16T06:31:02.417Z,19.00
2018-09-16T06:32:06.719Z,19.12
2018-09-16T06:33:11.093Z,17.85
2018-09-16T06:34:15.436Z,17.77
2018-09-16T06:35:19.947Z,16.42
2018-09-16T06:36:24.359Z,18.25
2018-09-16T06:37:28.518Z,17.77
2018-09-16T06:38:32.878Z,17.65
2018-09-16T06:39:37.199Z,17.67
2018-09-16T06:40:41.449Z,17.77
2018-09-16T06:41:45.853Z,17.02
2018-09-16T06:42:50.711Z,18.37
2018-09-16T06:43:55.164Z,17.70
2018-09-16T06:44:59.410Z,19.42
2018-09-16T06:46:03.780Z,17.40
2018-09-16T06:47:08.141Z,17.42
2018-09-16T06:48:12.537Z,19.48
2018-09-16T06:49:17.160Z,18.12
2018-09-16T06:50:21.615Z,18.98
2018-09-16T06:51:26.202Z,18.45
2018-09-16T06:52:30.491Z,18.80
2018-09-16T06:53:35.109Z,18.15
2018-09-16T06:54:39.492Z,18.52
2018-09-16T06:55:44.025Z,18.85
2018-09-16T06:56:48.506Z,19.37
2018-09-16T06:57:53.278Z,17.17
2018-09-16T06:58:58.261Z,19.85
2018-09-16T07:00:02.716Z,19.07
2018-09-16T07:01:07.105Z,19.20
2018-09-16T07:02:11.572Z,18.27
2018-09-16T07:04:00.185Z,18.40
2018-09-16T07:05:04.480Z,18.00
2018-09-16T07:06:08.933Z,18.48
2018-09-16T07:07:13.566Z,16.87
2018-09-16T07:08:18.177Z,19.15
2018-09-16T07:09:22.643Z,19.75
2018-09-16T07:10:26.944Z,19.65
2018-09-16T07:11:31.464Z,18.65
2018-09-16T07:12:35.756Z,17.73
2018-09-16T07:13:40.058Z,18.52
2018-09-16T07:14:44.330Z,19.27
2018-09-16T07:15:48.764Z,18.57
2018-09-16T07:16:53.530Z,19.25
2018-09-16T07:17:58.164Z,19.20
2018-09-16T07:19:02.435Z,19.52
2018-09-16T07:20:06.884Z,17.20
2018-09-16T07:21:11.195Z,17.37
2018-09-16T07:22:15.904Z,18.73
2018-09-16T07:23:20.268Z,17.65
2018-09-16T07:24:24.754Z,19.25
2018-09-16T07:25:29.126Z,18.35
2018-09-16T07:26:33.575Z,19.10
2018-09-16T07:27:37.805Z,16.52
2018-09-16T07:28:42.215Z,16.70
2018-09-16T07:29:46.294Z,17.00
2018-09-16T07:30:50.546Z,17.32
2018-09-16T07:31:54.956Z,16.50
2018-09-16T07:32:59.145Z,16.60
2018-09-16T07:34:03.518Z,15.20
2018-09-16T07:35:07.806Z,15.58
2018-09-16T07:36:12.186Z,16.60
2018-09-16T07:37:16.504Z,15.72
2018-09-16T07:38:20.969Z,14.55
2018-09-16T07:39:25.315Z,16.00
2018-09-16T07:40:29.484Z,15.83
2018-09-16T07:41:33.688Z,15.83
2018-09-16T07:42:38.024Z,16.77
2018-09-16T07:43:42.269Z,16.15
2018-09-16T07:44:46.509Z,15.43
2018-09-16T07:45:50.846Z,14.63
2018-09-16T07:46:54.951Z,14.73
2018-09-16T07:47:59.084Z,16.07
2018-09-16T07:49:03.472Z,16.02
2018-09-16T07:50:07.775Z,15.45
2018-09-16T07:51:11.956Z,15.55
2018-09-16T07:52:16.214Z,14.13
2018-09-16T07:53:20.502Z,15.05
2018-09-16T07:54:24.859Z,13.58
2018-09-16T07:55:29.083Z,14.73
2018-09-16T07:56:33.715Z,13.75
2018-09-16T07:57:38.064Z,14.43
2018-09-16T07:58:42.276Z,15.45
2018-09-16T07:59:46.435Z,14.68
2018-09-16T08:00:50.639Z,14.93
2018-09-16T08:01:54.741Z,13.68
2018-09-16T08:02:59.010Z,12.50
2018-09-16T08:04:03.729Z,15.23
2018-09-16T08:05:08.026Z,13.93
2018-09-16T08:06:12.289Z,15.55
2018-09-16T08:07:17.232Z,13.53
2018-09-16T08:08:21.738Z,14.30
2018-09-16T08:09:25.853Z,14.03
2018-09-16T08:10:30.135Z,14.30
2018-09-16T08:11:34.388Z,15.50
2018-09-16T08:12:38.519Z,14.15
2018-09-16T08:13:42.692Z,13.70
2018-09-16T08:14:46.842Z,13.35
2018-09-16T08:15:51.018Z,13.85
2018-09-16T08:16:55.082Z,12.98
2018-09-16T08:17:59.316Z,14.10
2018-09-16T08:19:03.419Z,14.70
2018-09-16T08:20:07.521Z,14.45
2018-09-16T08:21:11.751Z,13.75
2018-09-16T08:22:15.911Z,13.38
2018-09-16T08:23:20.011Z,12.15
2018-09-16T08:24:24.200Z,13.25
2018-09-16T08:25:28.386Z,12.18
2018-09-16T08:26:32.536Z,12.68
2018-09-16T08:27:36.596Z,14.10
2018-09-16T08:28:40.664Z,12.13
2018-09-16T08:29:44.822Z,13.25
2018-09-16T08:30:49.072Z,13.10
2018-09-16T08:31:53.873Z,12.20
2018-09-16T08:32:58.026Z,11.68
2018-09-16T08:34:02.155Z,13.68
2018-09-16T08:35:06.381Z,12.20
2018-09-16T08:36:10.600Z,12.23
2018-09-16T08:37:15.021Z,12.50
2018-09-16T08:38:19.217Z,12.73
2018-09-16T08:39:23.734Z,11.97
2018-09-16T08:40:28.069Z,11.65
2018-09-16T08:41:32.350Z,12.35
2018-09-16T08:42:37.016Z,12.13
2018-09-16T08:43:41.132Z,12.75
2018-09-16T08:44:45.455Z,12.10
2018-09-16T08:45:49.824Z,11.55
2018-09-16T08:46:54.025Z,12.90
2018-09-16T08:47:58.268Z,12.45
2018-09-16T08:49:02.778Z,12.30
2018-09-16T08:50:07.098Z,12.85
2018-09-16T08:51:11.453Z,13.25
2018-09-16T08:52:15.970Z,13.13
2018-09-16T08:53:20.089Z,12.53
2018-09-16T08:54:24.367Z,11.70
2018-09-16T08:55:28.838Z,11.33
2018-09-16T08:56:33.304Z,11.68
2018-09-16T08:57:37.664Z,11.60
2018-09-16T08:58:42.033Z,11.20
2018-09-16T08:59:46.197Z,12.63
2018-09-16T09:00:50.538Z,10.55
2018-09-16T09:01:55.050Z,10.70
2018-09-16T09:02:59.251Z,10.48
2018-09-16T09:04:04.427Z,11.97
2018-09-16T09:05:09.136Z,11.60
2018-09-16T09:06:13.978Z,12.20
2018-09-16T09:07:22.461Z,11.75
2018-09-16T09:08:26.994Z,12.10
2018-09-16T09:09:31.526Z,10.78
2018-09-16T09:10:35.948Z,10.00
2018-09-16T09:11:41.137Z,10.63
2018-09-16T09:12:45.487Z,11.83
2018-09-16T09:13:49.918Z,12.53
2018-09-16T09:14:54.340Z,12.20
2018-09-16T09:15:58.870Z,11.63
2018-09-16T09:17:02.984Z,11.78
2018-09-16T09:18:07.467Z,11.97
2018-09-16T09:19:11.747Z,12.40
2018-09-16T09:20:16.129Z,11.65
2018-09-16T09:21:20.338Z,11.10
2018-09-16T09:22:24.965Z,11.10
2018-09-16T09:23:29.379Z,10.95
2018-09-16T09:24:33.722Z,12.47
2018-09-16T09:25:38.356Z,11.60
2018-09-16T09:26:42.726Z,12.53
2018-09-16T09:27:47.260Z,12.73
2018-09-16T09:28:51.670Z,11.53
2018-09-16T09:29:56.309Z,11.50
2018-09-16T09:31:00.689Z,11.90
2018-09-16T09:32:05.638Z,12.55
2018-09-16T09:33:09.978Z,11.22
2018-09-16T09:34:14.418Z,11.80
2018-09-16T09:35:18.628Z,11.83
2018-09-16T09:36:23.109Z,12.55
2018-09-16T09:37:27.499Z,11.63
2018-09-16T09:38:31.793Z,10.58
2018-09-16T09:39:36.038Z,9.65
2018-09-16T09:40:40.532Z,10.20
2018-09-16T09:41:45.046Z,9.88
2018-09-16T09:42:49.404Z,10.32
2018-09-16T09:43:53.658Z,10.75
2018-09-16T09:44:57.972Z,11.68
2018-09-16T09:46:02.288Z,11.57
2018-09-16T09:47:07.039Z,12.40
2018-09-16T09:48:11.713Z,11.68
2018-09-16T09:49:15.864Z,17.95
2018-09-16T09:50:20.453Z,11.93
2018-09-16T09:51:24.649Z,10.72
2018-09-16T09:52:29.347Z,10.28
2018-09-16T09:53:34.688Z,10.70
2018-09-16T09:54:39.189Z,11.53
2018-09-16T09:55:43.471Z,10.60
2018-09-16T09:56:47.976Z,12.03
2018-09-16T09:57:52.296Z,11.63
2018-09-16T09:58:56.498Z,13.30
2018-09-16T10:00:01.155Z,12.10
2018-09-16T10:01:05.307Z,11.03
2018-09-16T10:02:09.553Z,10.63
2018-09-16T10:03:13.782Z,10.10
2018-09-16T10:04:18.148Z,11.50
2018-09-16T10:05:22.581Z,11.45
2018-09-16T10:06:26.865Z,10.18
2018-09-16T10:07:31.256Z,10.40
2018-09-16T10:08:35.846Z,12.18
2018-09-16T10:09:40.218Z,9.35
2018-09-16T10:10:44.709Z,11.40
2018-09-16T10:11:49.105Z,10.70
2018-09-16T10:12:53.937Z,10.65
2018-09-16T10:13:58.666Z,9.70
2018-09-16T10:15:03.386Z,9.35
2018-09-16T10:16:07.658Z,9.88
2018-09-16T10:17:12.199Z,11.08
2018-09-16T10:18:16.874Z,10.78
2018-09-16T10:19:21.600Z,10.20
2018-09-16T10:20:25.912Z,10.15
2018-09-16T10:21:30.261Z,10.03
2018-09-16T10:22:34.599Z,10.32
2018-09-16T10:23:39.706Z,10.40
2018-09-16T10:24:44.379Z,9.40
2018-09-16T10:25:48.790Z,9.08
2018-09-16T10:26:53.094Z,9.68
2018-09-16T10:27:57.579Z,9.93
2018-09-16T10:29:02.055Z,8.95
2018-09-16T10:30:06.462Z,11.68
2018-09-16T10:31:10.741Z,9.70
2018-09-16T10:32:15.076Z,9.55
2018-09-16T10:33:19.418Z,9.95
2018-09-16T10:34:24.003Z,9.88
2018-09-16T10:35:28.379Z,8.80
2018-09-16T10:36:32.885Z,9.33
2018-09-16T10:37:37.116Z,8.45
2018-09-16T10:38:41.379Z,13.85
2018-09-16T10:39:45.557Z,10.55
2018-09-16T10:40:49.735Z,10.82
2018-09-16T10:41:54.035Z,9.88
2018-09-16T10:42:58.534Z,8.60
2018-09-16T10:44:02.837Z,7.80
2018-09-16T10:45:07.606Z,8.50
2018-09-16T10:46:12.052Z,8.68
2018-09-16T10:47:16.265Z,7.67
2018-09-16T10:48:20.956Z,8.53
2018-09-16T10:49:25.564Z,8.43
2018-09-16T10:50:29.922Z,8.30
2018-09-16T10:51:34.297Z,8.43
2018-09-16T10:52:38.763Z,8.60
2018-09-16T10:53:43.060Z,7.47
2018-09-16T10:54:47.599Z,7.83
2018-09-16T10:55:51.912Z,8.88
2018-09-16T10:56:56.364Z,7.95
2018-09-16T10:58:00.595Z,8.35
2018-09-16T10:59:04.861Z,8.23
2018-09-16T11:00:09.517Z,10.80
2018-09-16T11:01:13.718Z,8.35
2018-09-16T11:02:18.002Z,7.78
2018-09-16T11:03:22.361Z,9.08
2018-09-16T11:04:26.995Z,8.80
2018-09-16T11:05:31.619Z,8.40
2018-09-16T11:06:35.837Z,8.55
2018-09-16T11:07:40.462Z,8.80
2018-09-16T11:08:45.251Z,9.00
2018-09-16T11:09:50.290Z,8.55
2018-09-16T11:10:54.571Z,8.48
2018-09-16T11:11:58.963Z,9.75
2018-09-16T11:13:03.484Z,8.30
2018-09-16T11:14:07.896Z,9.80
2018-09-16T11:15:12.471Z,8.48
2018-09-16T11:16:16.811Z,8.03
2018-09-16T11:17:21.219Z,8.05
2018-09-16T11:18:26.037Z,8.25
2018-09-16T11:19:30.882Z,10.65
2018-09-16T11:20:35.531Z,9.53
2018-09-16T11:21:39.883Z,8.33
2018-09-16T11:22:44.789Z,8.40
2018-09-16T11:23:49.279Z,9.28
2018-09-16T11:24:54.412Z,11.05
2018-09-16T11:25:58.920Z,9.03
2018-09-16T11:27:03.612Z,9.38
2018-09-16T11:28:07.893Z,8.95
2018-09-16T11:29:12.504Z,9.48
2018-09-16T11:30:16.719Z,8.93
2018-09-16T11:31:21.020Z,9.23
2018-09-16T11:32:25.504Z,8.63
2018-09-16T11:33:29.936Z,9.35
2018-09-16T11:34:34.209Z,8.78
2018-09-16T11:35:38.771Z,9.48
2018-09-16T11:36:43.579Z,8.48
2018-09-16T11:37:48.022Z,9.78
2018-09-16T11:38:52.492Z,10.72
2018-09-16T11:39:57.048Z,8.65
2018-09-16T11:41:01.639Z,9.18
2018-09-16T11:42:05.847Z,8.98
2018-09-16T11:43:10.138Z,9.73
2018-09-16T11:44:14.660Z,9.65
2018-09-16T11:45:18.938Z,8.80
2018-09-16T11:46:23.697Z,9.13
2018-09-16T11:47:28.149Z,9.90
2018-09-16T11:48:32.699Z,9.53
2018-09-16T11:49:37.228Z,10.08
2018-09-16T11:50:41.630Z,11.60
2018-09-16T11:51:46.302Z,9.08
2018-09-16T11:52:50.654Z,10.08
2018-09-16T11:53:55.178Z,9.55
2018-09-16T11:54:59.490Z,9.30
2018-09-16T11:56:03.914Z,9.53
2018-09-16T11:57:08.194Z,8.35
2018-09-16T11:58:12.517Z,8.45
2018-09-16T11:59:16.917Z,8.13
2018-09-16T12:00:21.100Z,9.45
2018-09-16T12:01:25.726Z,8.60
2018-09-16T12:02:30.046Z,8.43
2018-09-16T12:03:34.278Z,9.55
2018-09-16T12:04:38.677Z,11.45
2018-09-16T12:05:43.018Z,8.38
2018-09-16T12:06:47.219Z,8.65
2018-09-16T12:07:51.804Z,11.48
2018-09-16T12:08:56.145Z,10.20
2018-09-16T12:10:01.134Z,9.25
2018-09-16T12:11:05.459Z,9.40
2018-09-16T12:12:09.774Z,9.35
2018-09-16T12:13:14.375Z,9.50
2018-09-16T12:14:18.868Z,9.65
2018-09-16T12:15:23.174Z,8.80
2018-09-16T12:16:27.885Z,9.30
2018-09-16T12:17:32.242Z,8.75
2018-09-16T12:18:36.678Z,10.58
2018-09-16T12:19:41.432Z,9.65
2018-09-16T12:20:45.956Z,8.90
2018-09-16T12:21:50.229Z,9.48
2018-09-16T12:22:54.702Z,8.88
2018-09-16T12:23:59.296Z,8.13
2018-09-16T12:25:03.511Z,9.58
2018-09-16T12:26:08.155Z,8.88
2018-09-16T12:27:12.562Z,8.28
2018-09-16T12:28:16.841Z,9.48
2018-09-16T12:29:21.102Z,8.35
2018-09-16T12:30:25.471Z,9.68
2018-09-16T12:31:29.673Z,7.90
2018-09-16T12:32:34.142Z,8.63
2018-09-16T12:33:38.467Z,8.58
2018-09-16T12:34:42.624Z,9.80
2018-09-16T12:35:46.922Z,9.08
2018-09-16T12:36:51.160Z,7.67
2018-09-16T12:37:55.489Z,9.00
2018-09-16T12:38:59.791Z,9.05
2018-09-16T12:40:04.299Z,8.58
2018-09-16T12:41:08.717Z,9.53
2018-09-16T12:42:13.110Z,8.73
2018-09-16T12:43:17.372Z,9.40
2018-09-16T12:44:22.002Z,10.60
2018-09-16T12:45:26.723Z,9.15
2018-09-16T12:46:31.201Z,9.70
2018-09-16T12:47:35.743Z,9.05
2018-09-16T12:48:40.417Z,10.10
2018-09-16T12:49:44.893Z,7.75
2018-09-16T12:50:49.464Z,9.58
2018-09-16T12:51:53.765Z,8.35
2018-09-16T12:52:58.343Z,8.20
2018-09-16T12:54:02.887Z,8.48
2018-09-16T12:55:07.061Z,9.00
2018-09-16T12:56:11.392Z,8.38
2018-09-16T12:57:15.788Z,8.18
2018-09-16T12:58:20.185Z,9.45
2018-09-16T12:59:24.604Z,8.55
2018-09-16T13:00:28.749Z,10.15
2018-09-16T13:01:33.196Z,8.43
2018-09-16T13:02:37.776Z,9.05
2018-09-16T13:03:42.372Z,9.23
2018-09-16T13:04:46.738Z,8.98
2018-09-16T13:05:51.077Z,8.60
2018-09-16T13:06:55.233Z,9.63
2018-09-16T13:07:59.635Z,8.48
2018-09-16T13:09:05.344Z,7.87
2018-09-16T13:10:09.744Z,8.83
2018-09-16T13:11:14.113Z,8.50
2018-09-16T13:12:18.831Z,9.15
2018-09-16T13:13:23.285Z,8.83
2018-09-16T13:14:27.672Z,10.18
2018-09-16T13:15:32.131Z,9.40
2018-09-16T13:16:36.767Z,10.60
2018-09-16T13:17:41.590Z,9.10
2018-09-16T13:18:46.234Z,8.93
2018-09-16T13:19:50.699Z,9.40
2018-09-16T13:20:55.124Z,9.00
2018-09-16T13:21:59.238Z,9.80
2018-09-16T13:23:03.472Z,10.00
2018-09-16T13:24:07.763Z,8.63
2018-09-16T13:25:11.883Z,8.83
2018-09-16T13:26:16.173Z,8.75
2018-09-16T13:27:20.798Z,9.03
2018-09-16T13:28:25.143Z,9.48
2018-09-16T13:29:29.274Z,8.73
2018-09-16T13:30:33.553Z,8.75
2018-09-16T13:31:37.707Z,9.80
2018-09-16T13:32:41.870Z,9.48
2018-09-16T13:33:46.126Z,9.40
2018-09-16T13:34:50.903Z,9.58
2018-09-16T13:35:55.423Z,9.20
2018-09-16T13:36:59.902Z,8.85
2018-09-16T13:38:04.068Z,8.10
2018-09-16T13:39:10.033Z,8.48
2018-09-16T13:40:14.558Z,8.95
2018-09-16T13:41:19.582Z,9.20
2018-09-16T13:42:24.006Z,8.53
2018-09-16T13:43:28.681Z,8.90
2018-09-16T13:44:32.890Z,8.63
2018-09-16T13:45:37.463Z,8.00
2018-09-16T13:46:41.846Z,10.53
2018-09-16T13:47:46.133Z,9.55
2018-09-16T13:48:50.705Z,9.23
2018-09-16T13:49:55.641Z,9.80
2018-09-16T13:51:00.127Z,8.00
2018-09-16T13:52:04.684Z,8.50
2018-09-16T13:53:09.111Z,8.75
2018-09-16T13:54:13.649Z,9.10
2018-09-16T13:55:18.241Z,7.78
2018-09-16T13:56:22.675Z,9.70
2018-09-16T13:57:26.900Z,9.03